Latest Weather Observations for Cape Sorell

IDT60801

Issued at 9:32 pm EDT Saturday 16 December 2017 (issued every 30 minutes, with the page automatically refreshed every 10 minutes)

About weather observations | Map of weather stations | Latest weather observations for TAS | Other Formats
Station Details ID: 097000 Name: CAPE SORELL Lat: -42.20 Lon: 145.17 Height: 19.3 m
Data from the previous 72 hours. | See also: Recent months at Cape Sorell
Date/Time
EDT
Temp
°C
App
Temp
°C
Dew
Point
°C
Rel
Hum
%
Delta-T
°C
Wind Press
QNH
hPa
Press
MSL
hPa
Rain since
9am
mm
Dir  Spd
km/h
Gust
km/h
Spd
kts
Gust
kts
16/09:30pm 14.2 11.1 8.8 70 2.7 WSW 15 19 8 10 1017.0 1016.9 0.8
16/09:00pm 13.9 11.9 8.5 70 2.7 WSW 9 15 5 8 1016.7 1016.6 0.8
16/08:30pm 14.2 12.6 8.6 69 2.8 WSW 7 9 4 5 1016.6 1016.5 0.8
16/08:00pm 15.7 13.2 9.6 67 3.2 WSW 13 17 7 9 1016.2 1016.1 0.8
16/07:30pm 16.5 14.2 10.4 67 3.2 SW 13 19 7 10 1015.8 1015.7 0.8
16/07:00pm 17.2 15.1 11.2 68 3.2 SW 13 15 7 8 1015.2 1015.2 0.8
16/06:30pm 17.4 15.5 11.7 69 3.1 SSW 13 17 7 9 1014.8 1014.8 0.8
16/06:00pm 17.2 15.3 11.7 70 3.0 SSW 13 15 7 8 1014.5 1014.5 0.8
16/05:30pm 16.4 14.3 11.3 72 2.7 SSW 13 17 7 9 1014.3 1014.3 0.8
16/05:00pm 16.4 14.4 11.6 73 2.6 SW 13 17 7 9 1014.4 1014.4 0.8
16/04:30pm 16.2 13.7 11.2 72 2.7 SW 15 19 8 10 1014.4 1014.4 0.8
16/04:00pm 16.4 13.5 11.1 71 2.8 WSW 17 20 9 11 1014.4 1014.4 0.8
16/03:30pm 16.9 15.3 11.4 70 3.0 W 11 17 6 9 1014.3 1014.3 0.8
16/03:00pm 18.1 16.7 12.3 69 3.2 W 11 17 6 9 1014.2 1014.2 0.8
16/02:30pm 19.5 19.4 15.0 75 2.6 WNW 9 13 5 7 1013.8 1013.8 0.8
16/02:00pm 18.4 18.3 14.9 80 2.0 WNW 9 13 5 7 1013.6 1013.6 0.6
16/01:30pm 16.7 16.2 13.8 83 1.6 W 9 13 5 7 1013.5 1013.5 0.6
16/01:00pm 16.1 15.2 13.8 86 1.3 WSW 11 13 6 7 1013.1 1013.1 0.6
16/12:30pm 15.4 14.0 13.4 88 1.1 WSW 13 15 7 8 1012.9 1012.9 0.6
16/12:00pm 14.6 12.9 12.6 88 1.1 WSW 13 17 7 9 1012.5 1012.5 0.6
16/11:30am 13.8 8.6 11.5 86 1.2 WSW 30 35 16 19 1012.2 1012.2 0.6
16/11:00am 14.7 10.3 11.8 83 1.6 WSW 26 32 14 17 1011.9 1011.9 0.0
16/10:30am 16.8 13.5 13.9 83 1.6 NW 24 32 13 17 1011.6 1011.6 0.0
16/10:00am 16.7 13.4 14.0 84 1.5 NW 24 32 13 17 1011.5 1011.5 0.0
16/09:30am 16.6 13.0 14.1 85 1.4 NW 26 32 14 17 1011.3 1011.3 0.0
16/09:00am 16.4 12.8 14.1 86 1.3 NW 26 33 14 18 1011.0 1011.0 0.4
16/08:30am 16.1 11.3 13.9 87 1.2 NNW 32 43 17 23 1010.7 1010.7 0.4
16/08:00am 15.6 11.7 13.4 87 1.2 NNW 26 35 14 19 1010.3 1010.3 0.4
16/07:30am 15.6 10.6 13.3 86 1.3 NNW 32 37 17 20 1010.1 1010.1 0.4
16/07:00am 14.9 9.4 12.4 85 1.4 NNW 33 46 18 25 1009.6 1009.6 0.4
16/06:30am 15.8 10.7 13.1 84 1.5 NNW 32 43 17 23 1009.2 1009.2 0.2
16/06:00am 15.7 11.7 13.0 84 1.5 NNW 26 37 14 20 1009.0 1009.0 0.2
16/05:30am 15.6 11.2 12.9 84 1.5 NNW 28 43 15 23 1008.8 1008.8 0.2
16/05:00am 15.4 10.0 12.9 85 1.4 NNW 33 43 18 23 1008.7 1008.7 0.2
16/04:30am 15.2 9.0 12.7 85 1.4 NNW 37 48 20 26 1008.3 1008.3 0.2
16/04:00am 15.3 10.0 12.4 83 1.6 NNW 32 44 17 24 1008.1 1008.1 0.0
16/03:30am 15.3 10.7 12.4 83 1.6 NNW 28 43 15 23 1008.3 1008.3 0.0
16/03:00am 15.4 9.5 12.3 82 1.7 N 35 43 19 23 1008.3 1008.3 0.0
16/02:30am 15.4 8.7 12.3 82 1.7 N 39 46 21 25 1008.3 1008.3 0.0
16/02:00am 15.2 9.2 12.0 81 1.7 N 35 43 19 23 1008.6 1008.6 0.0
16/01:30am 15.3 8.9 11.9 80 1.8 N 37 44 20 24 1008.6 1008.6 0.0
16/01:00am 15.2 9.5 11.8 80 1.8 N 33 41 18 22 1008.6 1008.6 0.0
16/12:30am 15.4 9.7 11.8 79 1.9 N 33 43 18 23 1008.9 1008.9 0.0
16/12:00am 15.4 9.9 11.8 79 2.0 N 32 39 17 21 1009.1 1009.1 0.0
 
Date/Time
EDT
Temp
°C
App
Temp
°C
Dew
Point
°C
Rel
Hum
%
Delta-T
°C
Wind Press
QNH
hPa
Press
MSL
hPa
Rain since
9am
mm
Dir  Spd
km/h
Gust
km/h
Spd
kts
Gust
kts
15/11:30pm 15.3 10.1 11.5 78 2.0 N 30 37 16 20 1009.0 1009.0 0.0
15/11:00pm 15.3 10.3 11.1 76 2.2 NNW 28 37 15 20 1009.1 1009.1 0.0
15/10:30pm 15.6 9.9 11.2 75 2.4 N 32 39 17 21 1009.2 1009.2 0.0
15/10:00pm 15.4 11.2 11.0 75 2.3 NNW 24 33 13 18 1009.4 1009.4 0.0
15/09:30pm 15.2 10.5 10.8 75 2.3 NNW 26 35 14 19 1009.3 1009.3 0.0
15/09:00pm 15.2 9.8 10.8 75 2.3 NNW 30 35 16 19 1009.3 1009.3 0.0
15/08:30pm 15.6 11.8 11.2 75 2.4 NNW 22 35 12 19 1009.2 1009.2 0.0
15/08:00pm 15.8 11.6 11.2 74 2.5 NNW 24 32 13 17 1009.1 1009.1 0.0
15/07:30pm 15.5 10.8 10.7 73 2.5 NNW 26 35 14 19 1009.0 1009.0 0.0
15/07:00pm 15.8 12.3 10.8 72 2.7 NW 20 24 11 13 1008.9 1008.9 0.0
15/06:30pm 16.1 10.9 10.4 69 3.0 NNW 28 37 15 20 1008.8 1008.8 0.0
15/06:00pm 16.4 11.4 10.9 70 2.9 NNW 28 37 15 20 1009.0 1009.0 0.0
15/05:30pm 16.8 11.1 11.1 69 3.1 NNW 32 43 17 23 1009.0 1009.0 0.0
15/05:00pm 16.1 9.8 9.8 66 3.3 NNW 33 43 18 23 1009.1 1009.1 0.0
15/04:30pm 16.5 11.2 9.7 64 3.6 NNW 28 41 15 22 1009.4 1009.4 0.0
15/04:00pm 16.4 10.1 9.6 64 3.6 NW 33 43 18 23 1009.3 1009.3 0.0
15/03:30pm 17.3 12.5 9.0 58 4.3 NW 24 33 13 18 1009.6 1009.6 0.0
15/03:00pm 16.7 11.1 8.9 60 4.0 NNW 28 37 15 20 1009.9 1009.9 0.0
15/02:30pm 16.9 11.0 9.1 60 4.0 NNW 30 39 16 21 1010.0 1010.0 0.0
15/02:00pm 16.9 11.8 7.8 55 4.6 NNW 24 33 13 18 1010.1 1010.1 0.0
15/01:30pm 17.2 11.8 8.1 55 4.6 NNW 26 35 14 19 1010.1 1010.1 0.0
15/01:00pm 18.5 13.0 9.0 54 5.0 NW 28 37 15 20 1010.2 1010.2 0.0
15/12:30pm 17.0 11.7 8.4 57 4.4 NNW 26 33 14 18 1010.4 1010.4 0.0
15/12:00pm 18.0 14.0 9.1 56 4.6 NNW 20 26 11 14 1010.6 1010.6 0.0
15/11:30am 16.0 11.7 7.7 58 4.2 NNW 20 30 11 16 1010.6 1010.6 0.0
15/11:00am 15.8 11.0 9.0 64 3.5 N 24 32 13 17 1010.9 1010.9 0.0
15/10:30am 15.3 10.4 8.5 64 3.4 N 24 32 13 17 1011.2 1011.2 0.0
15/10:00am 14.8 10.3 8.5 66 3.2 N 22 28 12 15 1011.1 1011.1 0.0
15/09:30am 14.9 10.7 8.2 64 3.4 N 20 26 11 14 1011.3 1011.3 0.0
15/09:00am 15.4 11.9 8.9 65 3.3 NNW 17 20 9 11 1011.3 1011.3 0.6
15/08:30am 15.1 11.8 7.9 62 3.6 NNW 15 19 8 10 1011.2 1011.2 0.6
15/08:00am 15.3 12.4 8.1 62 3.6 NW 13 19 7 10 1011.1 1011.1 0.6
15/07:30am 14.4 11.3 7.2 62 3.5 NW 13 20 7 11 1010.8 1010.8 0.6
15/07:00am 13.7 10.0 6.1 60 3.6 WNW 15 24 8 13 1010.6 1010.6 0.6
15/06:30am 13.4 10.1 6.3 62 3.4 WNW 13 19 7 10 1010.4 1010.4 0.6
15/06:00am 13.3 10.4 6.6 64 3.2 NW 11 15 6 8 1010.4 1010.4 0.6
15/05:30am 12.9 10.4 6.5 65 3.1 NW 9 15 5 8 1010.1 1010.1 0.6
15/05:00am 12.3 9.3 6.1 66 2.9 NW 11 13 6 7 1010.0 1010.0 0.6
15/04:30am 12.4 9.0 5.8 64 3.1 WNW 13 19 7 10 1009.9 1009.9 0.6
15/04:00am 12.4 9.7 5.8 64 3.1 W 9 17 5 9 1009.9 1009.9 0.6
15/03:30am 12.8 9.1 6.2 64 3.1 W 15 19 8 10 1009.8 1009.8 0.6
15/03:00am 13.1 8.8 6.9 66 3.0 WSW 19 24 10 13 1010.0 1010.0 0.6
15/02:30am 13.4 8.7 7.8 69 2.8 WSW 22 28 12 15 1010.1 1010.1 0.6
15/02:00am 13.3 8.5 7.3 67 2.9 WSW 22 26 12 14 1010.1 1010.1 0.6
15/01:30am 13.3 9.1 7.5 68 2.8 WSW 19 26 10 14 1010.2 1010.2 0.6
15/01:00am 13.4 8.7 7.6 68 2.8 WSW 22 28 12 15 1010.3 1010.3 0.6
15/12:30am 13.2 8.9 7.2 67 2.9 WSW 19 26 10 14 1010.0 1010.0 0.6
15/12:00am 13.0 8.5 6.8 66 3.0 WSW 20 24 11 13 1010.0 1010.0 0.6
 
Date/Time
EDT
Temp
°C
App
Temp
°C
Dew
Point
°C
Rel
Hum
%
Delta-T
°C
Wind Press
QNH
hPa
Press
MSL
hPa
Rain since
9am
mm
Dir  Spd
km/h
Gust
km/h
Spd
kts
Gust
kts
14/11:30pm 13.3 7.9 8.2 71 2.5 WSW 26 30 14 16 1009.8 1009.8 0.6
14/11:00pm 13.2 8.4 8.9 75 2.2 WSW 24 30 13 16 1009.6 1009.6 0.6
14/10:30pm 13.1 8.5 9.7 80 1.7 WSW 24 30 13 16 1009.4 1009.4 0.6
14/10:00pm 13.0 9.8 10.0 82 1.5 W 17 22 9 12 1009.2 1009.2 0.6
14/09:30pm 12.5 9.9 9.5 82 1.5 W 13 19 7 10 1008.9 1008.9 0.6
14/09:00pm 12.2 6.3 9.0 81 1.6 WSW 30 37 16 20 1008.6 1008.6 0.6
14/08:30pm 13.3 8.1 10.1 81 1.7 WSW 28 46 15 25 1007.9 1007.9 0.4
14/08:00pm 13.6 9.6 10.4 81 1.7 WSW 22 28 12 15 1007.8 1007.8 0.4
14/07:30pm 13.8 9.7 10.0 78 2.0 W 22 28 12 15 1007.3 1007.3 0.4
14/07:00pm 13.2 9.2 9.1 76 2.1 W 20 30 11 16 1006.7 1006.7 0.4
14/06:39pm 14.3 7.2 9.7 74 2.4 W 37 56 20 30 1006.3 1006.3 0.2
14/06:30pm 15.3 8.3 9.9 70 2.8 WNW 37 57 20 31 1006.0 1006.0 0.0
14/06:28pm 15.7 9.0 9.8 68 3.1 WNW 35 57 19 31 1006.1 1006.1 0.0
14/06:00pm 16.2 10.2 10.1 67 3.2 NW 32 41 17 22 1005.9 1005.9 0.0
14/05:30pm 16.7 10.7 10.1 65 3.5 NW 32 43 17 23 1005.7 1005.7 0.0
14/05:00pm 17.2 12.3 10.1 63 3.8 NW 26 41 14 22 1005.6 1005.6 0.0
14/04:30pm 18.6 14.3 10.9 61 4.2 NW 24 37 13 20 1005.4 1005.4 0.0
14/04:00pm 17.1 10.7 9.3 60 4.1 WNW 33 41 18 22 1005.3 1005.3 0.0
14/03:30pm 16.9 9.9 8.6 58 4.3 WNW 35 44 19 24 1004.9 1004.9 0.0
14/03:00pm 16.4 10.5 9.1 62 3.8 WNW 30 39 16 21 1004.7 1004.7 0.0
14/02:30pm 18.4 13.6 10.3 59 4.3 NW 26 35 14 19 1004.7 1004.7 0.0
14/02:00pm 18.3 14.4 10.7 61 4.1 WNW 22 32 12 17 1004.4 1004.4 0.0
14/01:30pm 17.4 12.4 10.8 65 3.5 WNW 28 35 15 19 1004.5 1004.5 0.0
14/01:00pm 16.3 11.8 9.9 66 3.4 W 24 33 13 18 1004.3 1004.3 0.0
14/12:30pm 17.0 12.2 10.4 65 3.5 W 26 33 14 18 1004.0 1004.0 0.0
14/12:00pm 15.8 10.3 10.6 71 2.8 WSW 30 39 16 21 1004.0 1004.0 0.0
14/11:30am 15.0 9.4 10.0 72 2.6 WSW 30 37 16 20 1003.7 1003.7 0.0
14/11:00am 17.4 13.9 12.1 71 2.9 W 22 30 12 16 1003.4 1003.4 0.0
14/10:30am 16.9 13.5 12.6 76 2.4 W 22 32 12 17 1002.9 1002.9 0.0
14/10:00am 15.4 10.8 12.2 81 1.8 WSW 28 33 15 18 1002.7 1002.7 0.0
14/09:30am 14.9 11.0 12.2 84 1.5 WSW 24 28 13 15 1002.4 1002.4 0.0
14/09:00am 15.2 11.9 12.9 86 1.3 WSW 22 26 12 14 1002.0 1002.0 2.2
14/08:30am 14.7 10.6 12.6 87 1.1 WSW 26 32 14 17 1001.7 1001.7 2.2
14/08:00am 14.6 9.3 12.6 88 1.1 WSW 32 37 17 20 1001.3 1001.3 2.2
14/07:30am 14.8 10.4 12.8 88 1.1 WSW 28 41 15 22 1000.7 1000.7 2.2
14/07:00am 15.7 13.3 13.7 88 1.1 W 19 26 10 14 1000.6 1000.6 2.2
14/06:30am 15.9 13.8 13.7 87 1.2 W 17 24 9 13 1000.2 1000.2 2.2
14/06:00am 16.1 15.3 13.9 87 1.3 WNW 11 17 6 9 999.8 999.8 2.2
14/05:30am 16.2 16.1 13.9 86 1.3 WNW 7 11 4 6 999.5 999.5 2.2
14/05:00am 16.4 15.6 14.1 86 1.3 W 11 13 6 7 999.2 999.2 2.2
14/04:30am 16.6 14.6 13.9 84 1.5 W 17 24 9 13 998.8 998.8 2.2
14/04:00am 17.0 14.1 13.9 82 1.8 W 22 28 12 15 998.7 998.7 2.2
14/03:30am 17.8 14.2 14.3 80 2.0 NW 26 35 14 19 998.5 998.5 2.2
14/03:00am 17.5 13.9 14.2 81 1.9 NNE 26 30 14 16 998.1 998.1 2.2
14/02:30am 17.5 12.4 14.8 84 1.6 NNE 35 56 19 30 998.1 998.1 2.2
14/02:29am 17.5 12.4 14.8 84 1.6 NE 35 56 19 30 998.1 998.1 2.2
14/02:00am 17.5 12.3 14.6 83 1.7 NE 35 41 19 22 998.1 998.1 1.8
14/01:30am 17.2 13.8 14.7 85 1.4 NE 26 33 14 18 999.7 999.7 1.4
14/01:00am 17.0 13.1 14.5 85 1.4 NNE 28 30 15 16 1001.0 1001.0 0.6
14/12:30am 17.0 14.6 13.9 82 1.8 NNE 19 22 10 12 1001.8 1001.8 0.4
14/12:00am 17.3 14.9 12.8 75 2.5 NNW 17 20 9 11 1002.3 1002.3 0.2
 
Date/Time
EDT
Temp
°C
App
Temp
°C
Dew
Point
°C
Rel
Hum
%
Delta-T
°C
Wind Press
QNH
hPa
Press
MSL
hPa
Rain since
9am
mm
Dir  Spd
km/h
Gust
km/h
Spd
kts
Gust
kts
13/11:30pm 17.9 15.6 13.0 73 2.7 NW 17 22 9 12 1001.8 1001.8 0.0
13/11:00pm 18.5 14.9 13.1 71 3.1 W 24 33 13 18 1001.6 1001.6 0.0
13/10:30pm 19.3 15.3 13.0 67 3.6 WSW 26 35 14 19 1001.5 1001.5 0.0
13/10:00pm 21.8 20.4 10.9 50 6.0 NW 9 17 5 9 1001.6 1001.6 0.0

Other Formats:

Comma delimited format used in spreadsheet applications
http://www.bom.gov.au/fwo/IDT60801/IDT60801.94974.axf

JavaScript Object Notation format (JSON) in row-major order
http://www.bom.gov.au/fwo/IDT60801/IDT60801.94974.json